sensor_id;sensor_type;location;lat;lon;timestamp;P1;durP1;ratioP1;P2;durP2;ratioP2
65328;SDS011;51941;52.210;5.158;2023-02-28T00:01:19;1.40;;;0.68;;
65328;SDS011;51941;52.210;5.158;2023-02-28T00:03:46;3.05;;;1.10;;
65328;SDS011;51941;52.210;5.158;2023-02-28T00:06:12;1.52;;;0.90;;
65328;SDS011;51941;52.210;5.158;2023-02-28T00:08:40;2.03;;;1.10;;
65328;SDS011;51941;52.210;5.158;2023-02-28T00:11:08;2.88;;;1.08;;
65328;SDS011;51941;52.210;5.158;2023-02-28T00:13:38;4.25;;;1.00;;
65328;SDS011;51941;52.210;5.158;2023-02-28T00:16:08;2.08;;;1.15;;
65328;SDS011;51941;52.210;5.158;2023-02-28T00:18:38;1.58;;;0.70;;
65328;SDS011;51941;52.210;5.158;2023-02-28T00:21:05;4.35;;;1.10;;
65328;SDS011;51941;52.210;5.158;2023-02-28T00:23:33;3.65;;;0.80;;
65328;SDS011;51941;52.210;5.158;2023-02-28T00:26:00;1.20;;;0.85;;
65328;SDS011;51941;52.210;5.158;2023-02-28T00:28:27;1.67;;;0.85;;
65328;SDS011;51941;52.210;5.158;2023-02-28T00:30:55;1.42;;;0.73;;
65328;SDS011;51941;52.210;5.158;2023-02-28T00:33:23;3.22;;;1.20;;
65328;SDS011;51941;52.210;5.158;2023-02-28T00:35:49;1.42;;;1.00;;
65328;SDS011;51941;52.210;5.158;2023-02-28T00:38:16;2.63;;;0.82;;
65328;SDS011;51941;52.210;5.158;2023-02-28T00:40:43;1.08;;;0.77;;
65328;SDS011;51941;52.210;5.158;2023-02-28T00:43:10;3.95;;;1.10;;
65328;SDS011;51941;52.210;5.158;2023-02-28T00:45:36;3.78;;;0.95;;
65328;SDS011;51941;52.210;5.158;2023-02-28T00:48:05;2.13;;;1.00;;
65328;SDS011;51941;52.210;5.158;2023-02-28T00:50:32;1.85;;;0.90;;
65328;SDS011;51941;52.210;5.158;2023-02-28T00:52:59;1.88;;;1.00;;
65328;SDS011;51941;52.210;5.158;2023-02-28T00:55:25;2.40;;;0.90;;
65328;SDS011;51941;52.210;5.158;2023-02-28T00:57:52;2.97;;;0.90;;
65328;SDS011;51941;52.210;5.158;2023-02-28T01:00:19;4.18;;;1.00;;
65328;SDS011;51941;52.210;5.158;2023-02-28T01:05:17;1.10;;;0.70;;
65328;SDS011;51941;52.210;5.158;2023-02-28T01:07:44;1.73;;;0.90;;
65328;SDS011;51941;52.210;5.158;2023-02-28T01:10:11;2.78;;;0.85;;
65328;SDS011;51941;52.210;5.158;2023-02-28T01:12:38;4.38;;;0.80;;
65328;SDS011;51941;52.210;5.158;2023-02-28T01:15:05;1.10;;;0.82;;
65328;SDS011;51941;52.210;5.158;2023-02-28T01:17:32;2.15;;;0.85;;
65328;SDS011;51941;52.210;5.158;2023-02-28T01:19:59;1.52;;;0.80;;
65328;SDS011;51941;52.210;5.158;2023-02-28T01:22:27;4.28;;;1.60;;
65328;SDS011;51941;52.210;5.158;2023-02-28T01:24:54;4.30;;;1.83;;
65328;SDS011;51941;52.210;5.158;2023-02-28T01:27:21;4.60;;;1.48;;
65328;SDS011;51941;52.210;5.158;2023-02-28T01:29:48;3.83;;;1.70;;
65328;SDS011;51941;52.210;5.158;2023-02-28T01:32:16;3.33;;;1.42;;
65328;SDS011;51941;52.210;5.158;2023-02-28T01:34:43;2.75;;;1.10;;
65328;SDS011;51941;52.210;5.158;2023-02-28T01:37:10;3.47;;;1.70;;
65328;SDS011;51941;52.210;5.158;2023-02-28T01:39:38;4.80;;;1.02;;
65328;SDS011;51941;52.210;5.158;2023-02-28T01:42:05;2.63;;;0.90;;
65328;SDS011;51941;52.210;5.158;2023-02-28T01:47:23;1.85;;;0.70;;
65328;SDS011;51941;52.210;5.158;2023-02-28T01:49:56;1.70;;;1.02;;
65328;SDS011;51941;52.210;5.158;2023-02-28T01:52:23;2.03;;;0.95;;
65328;SDS011;51941;52.210;5.158;2023-02-28T01:54:54;1.33;;;0.88;;
65328;SDS011;51941;52.210;5.158;2023-02-28T01:57:23;2.53;;;0.93;;
65328;SDS011;51941;52.210;5.158;2023-02-28T01:59:54;2.67;;;1.45;;
65328;SDS011;51941;52.210;5.158;2023-02-28T02:02:24;7.90;;;1.40;;
65328;SDS011;51941;52.210;5.158;2023-02-28T02:04:54;2.50;;;1.00;;
65328;SDS011;51941;52.210;5.158;2023-02-28T02:07:24;3.10;;;0.95;;
65328;SDS011;51941;52.210;5.158;2023-02-28T02:10:00;2.17;;;0.73;;
65328;SDS011;51941;52.210;5.158;2023-02-28T02:12:35;1.05;;;0.63;;
65328;SDS011;51941;52.210;5.158;2023-02-28T02:15:16;2.70;;;0.80;;
65328;SDS011;51941;52.210;5.158;2023-02-28T02:17:51;2.40;;;1.05;;
65328;SDS011;51941;52.210;5.158;2023-02-28T02:20:32;7.07;;;1.60;;
65328;SDS011;51941;52.210;5.158;2023-02-28T02:35:43;3.60;;;1.20;;
65328;SDS011;51941;52.210;5.158;2023-02-28T02:38:17;2.90;;;1.13;;
65328;SDS011;51941;52.210;5.158;2023-02-28T02:40:47;3.20;;;1.10;;
65328;SDS011;51941;52.210;5.158;2023-02-28T02:43:22;2.45;;;1.00;;
65328;SDS011;51941;52.210;5.158;2023-02-28T02:45:55;2.28;;;1.23;;
65328;SDS011;51941;52.210;5.158;2023-02-28T02:48:26;3.60;;;1.02;;
65328;SDS011;51941;52.210;5.158;2023-02-28T02:50:58;1.88;;;1.20;;
65328;SDS011;51941;52.210;5.158;2023-02-28T02:53:30;3.38;;;0.90;;
65328;SDS011;51941;52.210;5.158;2023-02-28T02:56:01;3.17;;;1.63;;
65328;SDS011;51941;52.210;5.158;2023-02-28T02:58:32;2.33;;;1.30;;
65328;SDS011;51941;52.210;5.158;2023-02-28T03:01:07;5.35;;;1.60;;
65328;SDS011;51941;52.210;5.158;2023-02-28T03:03:38;3.97;;;1.67;;
65328;SDS011;51941;52.210;5.158;2023-02-28T03:06:06;1.58;;;1.08;;
65328;SDS011;51941;52.210;5.158;2023-02-28T03:08:35;2.53;;;1.25;;
65328;SDS011;51941;52.210;5.158;2023-02-28T03:11:04;4.75;;;1.40;;
65328;SDS011;51941;52.210;5.158;2023-02-28T03:13:42;3.42;;;1.30;;
65328;SDS011;51941;52.210;5.158;2023-02-28T03:16:30;5.53;;;1.88;;
65328;SDS011;51941;52.210;5.158;2023-02-28T03:19:11;3.28;;;1.65;;
65328;SDS011;51941;52.210;5.158;2023-02-28T03:21:56;3.60;;;1.55;;
65328;SDS011;51941;52.210;5.158;2023-02-28T03:24:35;3.97;;;1.50;;
65328;SDS011;51941;52.210;5.158;2023-02-28T03:27:13;3.03;;;1.70;;
65328;SDS011;51941;52.210;5.158;2023-02-28T03:29:46;3.45;;;1.52;;
65328;SDS011;51941;52.210;5.158;2023-02-28T03:32:17;3.00;;;1.30;;
65328;SDS011;51941;52.210;5.158;2023-02-28T03:34:51;2.17;;;1.48;;
65328;SDS011;51941;52.210;5.158;2023-02-28T03:37:26;2.47;;;1.20;;
65328;SDS011;51941;52.210;5.158;2023-02-28T03:39:57;6.47;;;1.77;;
65328;SDS011;51941;52.210;5.158;2023-02-28T03:42:31;4.35;;;1.50;;
65328;SDS011;51941;52.210;5.158;2023-02-28T03:45:04;2.17;;;1.38;;
65328;SDS011;51941;52.210;5.158;2023-02-28T03:47:37;2.45;;;1.35;;
65328;SDS011;51941;52.210;5.158;2023-02-28T03:50:09;4.05;;;1.40;;
65328;SDS011;51941;52.210;5.158;2023-02-28T03:52:42;3.60;;;1.52;;
65328;SDS011;51941;52.210;5.158;2023-02-28T03:55:12;5.10;;;1.80;;
65328;SDS011;51941;52.210;5.158;2023-02-28T03:57:43;2.92;;;1.85;;
65328;SDS011;51941;52.210;5.158;2023-02-28T04:02:53;3.67;;;1.77;;
65328;SDS011;51941;52.210;5.158;2023-02-28T04:05:20;4.18;;;1.95;;
65328;SDS011;51941;52.210;5.158;2023-02-28T04:07:49;6.85;;;2.30;;
65328;SDS011;51941;52.210;5.158;2023-02-28T04:10:16;6.63;;;1.80;;
65328;SDS011;51941;52.210;5.158;2023-02-28T04:12:43;2.88;;;1.85;;
65328;SDS011;51941;52.210;5.158;2023-02-28T04:15:10;5.55;;;1.92;;
65328;SDS011;51941;52.210;5.158;2023-02-28T04:17:37;3.28;;;1.92;;
65328;SDS011;51941;52.210;5.158;2023-02-28T04:20:04;6.47;;;1.90;;
65328;SDS011;51941;52.210;5.158;2023-02-28T04:22:35;4.55;;;1.90;;
65328;SDS011;51941;52.210;5.158;2023-02-28T04:25:04;4.18;;;1.83;;
65328;SDS011;51941;52.210;5.158;2023-02-28T04:27:32;7.07;;;2.13;;
65328;SDS011;51941;52.210;5.158;2023-02-28T04:29:59;5.65;;;2.10;;
65328;SDS011;51941;52.210;5.158;2023-02-28T04:32:26;3.60;;;2.13;;
65328;SDS011;51941;52.210;5.158;2023-02-28T04:34:53;4.40;;;2.10;;
65328;SDS011;51941;52.210;5.158;2023-02-28T04:37:20;4.88;;;2.33;;
65328;SDS011;51941;52.210;5.158;2023-02-28T04:39:52;4.85;;;2.10;;
65328;SDS011;51941;52.210;5.158;2023-02-28T04:42:21;4.25;;;2.17;;
65328;SDS011;51941;52.210;5.158;2023-02-28T04:44:47;3.42;;;2.53;;
65328;SDS011;51941;52.210;5.158;2023-02-28T04:47:14;5.15;;;2.38;;
65328;SDS011;51941;52.210;5.158;2023-02-28T04:49:41;4.00;;;2.80;;
65328;SDS011;51941;52.210;5.158;2023-02-28T04:52:08;3.88;;;2.50;;
65328;SDS011;51941;52.210;5.158;2023-02-28T04:54:35;4.18;;;2.38;;
65328;SDS011;51941;52.210;5.158;2023-02-28T04:57:04;3.88;;;3.00;;
65328;SDS011;51941;52.210;5.158;2023-02-28T04:59:32;6.38;;;3.17;;
65328;SDS011;51941;52.210;5.158;2023-02-28T05:01:59;5.03;;;3.05;;
65328;SDS011;51941;52.210;5.158;2023-02-28T05:04:29;6.78;;;4.70;;
65328;SDS011;51941;52.210;5.158;2023-02-28T05:06:59;8.05;;;4.20;;
65328;SDS011;51941;52.210;5.158;2023-02-28T05:09:26;5.28;;;3.38;;
65328;SDS011;51941;52.210;5.158;2023-02-28T05:11:53;6.57;;;3.40;;
65328;SDS011;51941;52.210;5.158;2023-02-28T05:14:20;4.53;;;3.38;;
65328;SDS011;51941;52.210;5.158;2023-02-28T05:16:48;5.07;;;2.78;;
65328;SDS011;51941;52.210;5.158;2023-02-28T05:19:15;4.32;;;2.83;;
65328;SDS011;51941;52.210;5.158;2023-02-28T05:21:48;5.13;;;2.55;;
65328;SDS011;51941;52.210;5.158;2023-02-28T05:24:17;4.18;;;2.30;;
65328;SDS011;51941;52.210;5.158;2023-02-28T05:26:48;3.22;;;2.22;;
65328;SDS011;51941;52.210;5.158;2023-02-28T05:29:17;3.67;;;2.22;;
65328;SDS011;51941;52.210;5.158;2023-02-28T05:31:44;4.07;;;2.25;;
65328;SDS011;51941;52.210;5.158;2023-02-28T05:34:12;3.40;;;2.17;;
65328;SDS011;51941;52.210;5.158;2023-02-28T05:36:41;3.95;;;1.90;;
65328;SDS011;51941;52.210;5.158;2023-02-28T05:39:08;3.45;;;1.75;;
65328;SDS011;51941;52.210;5.158;2023-02-28T05:41:38;3.47;;;1.70;;
65328;SDS011;51941;52.210;5.158;2023-02-28T05:44:06;1.88;;;1.67;;
65328;SDS011;51941;52.210;5.158;2023-02-28T05:46:33;1.55;;;1.25;;
65328;SDS011;51941;52.210;5.158;2023-02-28T05:49:00;3.22;;;1.60;;
65328;SDS011;51941;52.210;5.158;2023-02-28T05:51:29;4.05;;;1.75;;
65328;SDS011;51941;52.210;5.158;2023-02-28T05:53:58;1.83;;;1.23;;
65328;SDS011;51941;52.210;5.158;2023-02-28T05:56:25;3.78;;;1.42;;
65328;SDS011;51941;52.210;5.158;2023-02-28T05:58:52;2.50;;;1.58;;
65328;SDS011;51941;52.210;5.158;2023-02-28T06:01:20;2.08;;;1.30;;
65328;SDS011;51941;52.210;5.158;2023-02-28T06:03:49;3.03;;;1.65;;
65328;SDS011;51941;52.210;5.158;2023-02-28T06:06:15;3.97;;;1.58;;
65328;SDS011;51941;52.210;5.158;2023-02-28T06:08:43;2.78;;;1.30;;
65328;SDS011;51941;52.210;5.158;2023-02-28T06:11:10;5.07;;;3.17;;
65328;SDS011;51941;52.210;5.158;2023-02-28T06:13:38;2.67;;;1.60;;
65328;SDS011;51941;52.210;5.158;2023-02-28T06:16:05;2.70;;;1.65;;
65328;SDS011;51941;52.210;5.158;2023-02-28T06:18:32;2.13;;;1.58;;
65328;SDS011;51941;52.210;5.158;2023-02-28T06:20:59;2.95;;;1.70;;
65328;SDS011;51941;52.210;5.158;2023-02-28T06:23:25;5.53;;;1.70;;
65328;SDS011;51941;52.210;5.158;2023-02-28T06:25:54;4.40;;;1.92;;
65328;SDS011;51941;52.210;5.158;2023-02-28T06:28:23;4.72;;;1.92;;
65328;SDS011;51941;52.210;5.158;2023-02-28T06:30:50;2.42;;;1.83;;
65328;SDS011;51941;52.210;5.158;2023-02-28T06:33:17;3.95;;;2.00;;
65328;SDS011;51941;52.210;5.158;2023-02-28T06:35:44;3.00;;;1.85;;
65328;SDS011;51941;52.210;5.158;2023-02-28T06:38:13;2.00;;;1.75;;
65328;SDS011;51941;52.210;5.158;2023-02-28T06:40:40;4.68;;;2.30;;
65328;SDS011;51941;52.210;5.158;2023-02-28T06:43:08;2.72;;;2.20;;
65328;SDS011;51941;52.210;5.158;2023-02-28T06:45:36;2.55;;;2.00;;
65328;SDS011;51941;52.210;5.158;2023-02-28T06:48:03;4.88;;;2.10;;
65328;SDS011;51941;52.210;5.158;2023-02-28T06:50:30;2.78;;;1.92;;
65328;SDS011;51941;52.210;5.158;2023-02-28T06:52:57;5.13;;;2.50;;
65328;SDS011;51941;52.210;5.158;2023-02-28T06:55:24;3.00;;;2.03;;
65328;SDS011;51941;52.210;5.158;2023-02-28T06:57:51;4.43;;;2.45;;
65328;SDS011;51941;52.210;5.158;2023-02-28T07:00:21;4.50;;;2.13;;
65328;SDS011;51941;52.210;5.158;2023-02-28T07:02:48;6.30;;;2.50;;
65328;SDS011;51941;52.210;5.158;2023-02-28T07:05:15;4.30;;;2.47;;
65328;SDS011;51941;52.210;5.158;2023-02-28T07:07:42;5.35;;;2.75;;
65328;SDS011;51941;52.210;5.158;2023-02-28T07:10:11;3.25;;;2.30;;
65328;SDS011;51941;52.210;5.158;2023-02-28T07:12:42;4.13;;;2.28;;
65328;SDS011;51941;52.210;5.158;2023-02-28T07:15:09;4.45;;;2.40;;
65328;SDS011;51941;52.210;5.158;2023-02-28T07:17:38;3.97;;;2.28;;
65328;SDS011;51941;52.210;5.158;2023-02-28T07:20:05;3.13;;;2.20;;
65328;SDS011;51941;52.210;5.158;2023-02-28T07:22:33;3.95;;;2.38;;
65328;SDS011;51941;52.210;5.158;2023-02-28T07:25:00;4.72;;;2.90;;
65328;SDS011;51941;52.210;5.158;2023-02-28T07:27:27;6.65;;;3.83;;
65328;SDS011;51941;52.210;5.158;2023-02-28T07:29:54;4.05;;;3.05;;
65328;SDS011;51941;52.210;5.158;2023-02-28T07:32:21;4.70;;;2.95;;
65328;SDS011;51941;52.210;5.158;2023-02-28T07:34:49;4.38;;;2.95;;
65328;SDS011;51941;52.210;5.158;2023-02-28T07:37:16;6.05;;;3.50;;
65328;SDS011;51941;52.210;5.158;2023-02-28T07:39:42;3.88;;;2.72;;
65328;SDS011;51941;52.210;5.158;2023-02-28T07:42:09;4.90;;;2.60;;
65328;SDS011;51941;52.210;5.158;2023-02-28T07:44:38;2.90;;;2.60;;
65328;SDS011;51941;52.210;5.158;2023-02-28T07:47:06;9.13;;;2.97;;
65328;SDS011;51941;52.210;5.158;2023-02-28T07:49:34;5.93;;;2.80;;
65328;SDS011;51941;52.210;5.158;2023-02-28T07:52:03;4.57;;;3.10;;
65328;SDS011;51941;52.210;5.158;2023-02-28T07:54:30;3.15;;;2.20;;
65328;SDS011;51941;52.210;5.158;2023-02-28T07:56:57;3.88;;;2.60;;
65328;SDS011;51941;52.210;5.158;2023-02-28T07:59:24;6.10;;;2.90;;
65328;SDS011;51941;52.210;5.158;2023-02-28T08:01:51;4.43;;;2.80;;
65328;SDS011;51941;52.210;5.158;2023-02-28T08:04:18;8.30;;;3.60;;
65328;SDS011;51941;52.210;5.158;2023-02-28T08:06:45;5.32;;;2.97;;
65328;SDS011;51941;52.210;5.158;2023-02-28T08:09:14;4.10;;;2.78;;
65328;SDS011;51941;52.210;5.158;2023-02-28T08:11:40;3.38;;;2.78;;
65328;SDS011;51941;52.210;5.158;2023-02-28T08:14:07;6.90;;;2.72;;
65328;SDS011;51941;52.210;5.158;2023-02-28T08:16:34;4.28;;;2.85;;
65328;SDS011;51941;52.210;5.158;2023-02-28T08:19:01;3.65;;;3.20;;
65328;SDS011;51941;52.210;5.158;2023-02-28T08:21:28;5.13;;;2.83;;
65328;SDS011;51941;52.210;5.158;2023-02-28T08:23:54;4.15;;;3.15;;
65328;SDS011;51941;52.210;5.158;2023-02-28T08:26:24;5.18;;;3.83;;
65328;SDS011;51941;52.210;5.158;2023-02-28T08:28:50;5.18;;;3.03;;
65328;SDS011;51941;52.210;5.158;2023-02-28T08:31:17;4.00;;;2.42;;
65328;SDS011;51941;52.210;5.158;2023-02-28T08:33:45;2.55;;;2.28;;
65328;SDS011;51941;52.210;5.158;2023-02-28T08:36:13;4.95;;;2.90;;
65328;SDS011;51941;52.210;5.158;2023-02-28T08:38:40;4.22;;;3.20;;
65328;SDS011;51941;52.210;5.158;2023-02-28T08:41:08;5.07;;;2.40;;
65328;SDS011;51941;52.210;5.158;2023-02-28T08:43:38;6.07;;;2.60;;
65328;SDS011;51941;52.210;5.158;2023-02-28T08:46:06;4.73;;;2.53;;
65328;SDS011;51941;52.210;5.158;2023-02-28T08:48:34;5.97;;;3.30;;
65328;SDS011;51941;52.210;5.158;2023-02-28T08:51:03;5.32;;;2.97;;
65328;SDS011;51941;52.210;5.158;2023-02-28T08:53:32;4.40;;;3.10;;
65328;SDS011;51941;52.210;5.158;2023-02-28T08:56:00;8.43;;;2.70;;
65328;SDS011;51941;52.210;5.158;2023-02-28T08:58:29;10.57;;;2.65;;
65328;SDS011;51941;52.210;5.158;2023-02-28T09:00:57;3.70;;;2.60;;
65328;SDS011;51941;52.210;5.158;2023-02-28T09:03:24;4.63;;;2.33;;
65328;SDS011;51941;52.210;5.158;2023-02-28T09:05:53;5.22;;;2.33;;
65328;SDS011;51941;52.210;5.158;2023-02-28T09:08:20;4.78;;;2.55;;
65328;SDS011;51941;52.210;5.158;2023-02-28T09:10:47;5.13;;;2.40;;
65328;SDS011;51941;52.210;5.158;2023-02-28T09:13:14;4.15;;;2.28;;
65328;SDS011;51941;52.210;5.158;2023-02-28T09:15:41;2.97;;;1.88;;
65328;SDS011;51941;52.210;5.158;2023-02-28T09:18:09;3.30;;;2.30;;
65328;SDS011;51941;52.210;5.158;2023-02-28T09:20:37;4.18;;;2.40;;
65328;SDS011;51941;52.210;5.158;2023-02-28T09:23:04;5.82;;;2.30;;
65328;SDS011;51941;52.210;5.158;2023-02-28T09:25:31;3.10;;;1.73;;
65328;SDS011;51941;52.210;5.158;2023-02-28T09:27:58;3.65;;;2.40;;
65328;SDS011;51941;52.210;5.158;2023-02-28T09:30:25;4.72;;;2.35;;
65328;SDS011;51941;52.210;5.158;2023-02-28T09:32:52;3.25;;;2.00;;
65328;SDS011;51941;52.210;5.158;2023-02-28T09:35:21;4.53;;;1.80;;
65328;SDS011;51941;52.210;5.158;2023-02-28T09:37:49;2.80;;;1.85;;
65328;SDS011;51941;52.210;5.158;2023-02-28T09:40:17;2.00;;;1.73;;
65328;SDS011;51941;52.210;5.158;2023-02-28T09:42:46;4.30;;;1.80;;
65328;SDS011;51941;52.210;5.158;2023-02-28T09:45:16;3.53;;;1.88;;
65328;SDS011;51941;52.210;5.158;2023-02-28T09:47:51;2.67;;;1.80;;
65328;SDS011;51941;52.210;5.158;2023-02-28T09:50:23;3.10;;;2.30;;
65328;SDS011;51941;52.210;5.158;2023-02-28T09:52:58;3.58;;;2.30;;
65328;SDS011;51941;52.210;5.158;2023-02-28T09:55:28;3.00;;;2.10;;
65328;SDS011;51941;52.210;5.158;2023-02-28T09:57:59;2.50;;;1.83;;
65328;SDS011;51941;52.210;5.158;2023-02-28T10:00:29;3.60;;;1.67;;
65328;SDS011;51941;52.210;5.158;2023-02-28T10:05:58;3.97;;;1.63;;
65328;SDS011;51941;52.210;5.158;2023-02-28T10:08:32;2.90;;;1.67;;
65328;SDS011;51941;52.210;5.158;2023-02-28T10:11:07;3.15;;;1.73;;
65328;SDS011;51941;52.210;5.158;2023-02-28T10:34:55;3.65;;;1.48;;
65328;SDS011;51941;52.210;5.158;2023-02-28T10:37:25;2.80;;;1.77;;
65328;SDS011;51941;52.210;5.158;2023-02-28T10:39:52;3.13;;;1.70;;
65328;SDS011;51941;52.210;5.158;2023-02-28T10:42:20;3.45;;;1.60;;
65328;SDS011;51941;52.210;5.158;2023-02-28T10:45:04;1.90;;;1.52;;
65328;SDS011;51941;52.210;5.158;2023-02-28T10:47:34;1.42;;;1.13;;
65328;SDS011;51941;52.210;5.158;2023-02-28T10:50:08;1.40;;;1.17;;
65328;SDS011;51941;52.210;5.158;2023-02-28T10:52:53;1.75;;;0.98;;
65328;SDS011;51941;52.210;5.158;2023-02-28T10:55:22;1.85;;;1.00;;
65328;SDS011;51941;52.210;5.158;2023-02-28T10:57:50;1.63;;;0.80;;
65328;SDS011;51941;52.210;5.158;2023-02-28T11:00:17;2.20;;;1.00;;
65328;SDS011;51941;52.210;5.158;2023-02-28T11:02:48;2.47;;;1.67;;
65328;SDS011;51941;52.210;5.158;2023-02-28T11:05:25;1.25;;;0.90;;
65328;SDS011;51941;52.210;5.158;2023-02-28T11:07:54;2.90;;;0.90;;
65328;SDS011;51941;52.210;5.158;2023-02-28T11:10:24;1.30;;;0.90;;
65328;SDS011;51941;52.210;5.158;2023-02-28T11:12:55;1.48;;;1.00;;
65328;SDS011;51941;52.210;5.158;2023-02-28T11:15:24;2.75;;;0.88;;
65328;SDS011;51941;52.210;5.158;2023-02-28T11:17:54;1.48;;;0.90;;
65328;SDS011;51941;52.210;5.158;2023-02-28T11:20:25;1.50;;;0.98;;
65328;SDS011;51941;52.210;5.158;2023-02-28T11:22:54;1.40;;;1.10;;
65328;SDS011;51941;52.210;5.158;2023-02-28T11:25:23;1.13;;;1.00;;
65328;SDS011;51941;52.210;5.158;2023-02-28T11:27:52;1.20;;;0.82;;
65328;SDS011;51941;52.210;5.158;2023-02-28T11:30:27;1.23;;;0.85;;
65328;SDS011;51941;52.210;5.158;2023-02-28T11:33:00;1.13;;;0.90;;
65328;SDS011;51941;52.210;5.158;2023-02-28T11:35:28;3.83;;;1.03;;
65328;SDS011;51941;52.210;5.158;2023-02-28T11:37:59;2.30;;;1.30;;
65328;SDS011;51941;52.210;5.158;2023-02-28T11:40:29;2.65;;;1.10;;
65328;SDS011;51941;52.210;5.158;2023-02-28T11:43:06;1.17;;;0.90;;
65328;SDS011;51941;52.210;5.158;2023-02-28T11:45:45;1.60;;;1.08;;
65328;SDS011;51941;52.210;5.158;2023-02-28T11:48:30;1.73;;;1.17;;
65328;SDS011;51941;52.210;5.158;2023-02-28T11:51:06;1.95;;;1.05;;
65328;SDS011;51941;52.210;5.158;2023-02-28T11:53:53;3.65;;;1.30;;
65328;SDS011;51941;52.210;5.158;2023-02-28T11:56:32;8.88;;;4.40;;
65328;SDS011;51941;52.210;5.158;2023-02-28T11:59:08;5.90;;;3.17;;
65328;SDS011;51941;52.210;5.158;2023-02-28T12:02:02;3.22;;;1.73;;
65328;SDS011;51941;52.210;5.158;2023-02-28T12:04:47;1.63;;;1.08;;
65328;SDS011;51941;52.210;5.158;2023-02-28T12:07:22;1.98;;;1.20;;
65328;SDS011;51941;52.210;5.158;2023-02-28T12:09:59;2.38;;;1.20;;
65328;SDS011;51941;52.210;5.158;2023-02-28T12:12:38;3.50;;;0.93;;
65328;SDS011;51941;52.210;5.158;2023-02-28T12:18:21;2.13;;;1.10;;
65328;SDS011;51941;52.210;5.158;2023-02-28T12:20:59;2.38;;;1.40;;
65328;SDS011;51941;52.210;5.158;2023-02-28T12:26:23;1.30;;;1.10;;
65328;SDS011;51941;52.210;5.158;2023-02-28T12:29:01;1.00;;;0.90;;
65328;SDS011;51941;52.210;5.158;2023-02-28T12:31:35;3.13;;;0.85;;
65328;SDS011;51941;52.210;5.158;2023-02-28T12:34:05;2.35;;;1.20;;
65328;SDS011;51941;52.210;5.158;2023-02-28T12:36:37;2.10;;;1.00;;
65328;SDS011;51941;52.210;5.158;2023-02-28T12:39:07;2.22;;;0.95;;
65328;SDS011;51941;52.210;5.158;2023-02-28T12:41:40;9.30;;;1.38;;
65328;SDS011;51941;52.210;5.158;2023-02-28T12:44:12;1.20;;;1.10;;
65328;SDS011;51941;52.210;5.158;2023-02-28T12:46:44;2.85;;;1.00;;
65328;SDS011;51941;52.210;5.158;2023-02-28T12:49:16;1.95;;;0.90;;
65328;SDS011;51941;52.210;5.158;2023-02-28T12:51:49;1.30;;;0.98;;
65328;SDS011;51941;52.210;5.158;2023-02-28T12:54:19;12.50;;;6.60;;
65328;SDS011;51941;52.210;5.158;2023-02-28T12:56:53;1.80;;;1.15;;
65328;SDS011;51941;52.210;5.158;2023-02-28T12:59:25;2.53;;;1.20;;
65328;SDS011;51941;52.210;5.158;2023-02-28T13:05:07;1.30;;;1.10;;
65328;SDS011;51941;52.210;5.158;2023-02-28T13:08:00;1.50;;;1.10;;
65328;SDS011;51941;52.210;5.158;2023-02-28T13:10:38;4.07;;;1.10;;
65328;SDS011;51941;52.210;5.158;2023-02-28T13:13:11;3.58;;;1.13;;
65328;SDS011;51941;52.210;5.158;2023-02-28T13:15:49;3.55;;;1.10;;
65328;SDS011;51941;52.210;5.158;2023-02-28T13:18:29;4.05;;;1.20;;
65328;SDS011;51941;52.210;5.158;2023-02-28T13:20:57;4.38;;;1.30;;
65328;SDS011;51941;52.210;5.158;2023-02-28T13:23:58;1.80;;;0.90;;
65328;SDS011;51941;52.210;5.158;2023-02-28T13:29:36;1.73;;;1.10;;
65328;SDS011;51941;52.210;5.158;2023-02-28T13:37:42;1.00;;;0.90;;
65328;SDS011;51941;52.210;5.158;2023-02-28T13:40:31;2.17;;;1.20;;
65328;SDS011;51941;52.210;5.158;2023-02-28T13:43:03;2.78;;;1.50;;
65328;SDS011;51941;52.210;5.158;2023-02-28T13:45:34;3.40;;;1.60;;
65328;SDS011;51941;52.210;5.158;2023-02-28T13:48:03;2.90;;;1.23;;
65328;SDS011;51941;52.210;5.158;2023-02-28T13:50:41;2.05;;;1.20;;
65328;SDS011;51941;52.210;5.158;2023-02-28T13:56:06;1.63;;;1.02;;
65328;SDS011;51941;52.210;5.158;2023-02-28T13:58:48;1.20;;;1.00;;
65328;SDS011;51941;52.210;5.158;2023-02-28T14:01:29;1.30;;;1.15;;
65328;SDS011;51941;52.210;5.158;2023-02-28T14:04:29;1.75;;;1.05;;
65328;SDS011;51941;52.210;5.158;2023-02-28T14:07:17;1.52;;;0.93;;
65328;SDS011;51941;52.210;5.158;2023-02-28T14:09:49;1.85;;;1.23;;
65328;SDS011;51941;52.210;5.158;2023-02-28T14:15:26;1.20;;;1.10;;
65328;SDS011;51941;52.210;5.158;2023-02-28T14:18:11;3.28;;;1.27;;
65328;SDS011;51941;52.210;5.158;2023-02-28T14:20:42;2.28;;;0.90;;
65328;SDS011;51941;52.210;5.158;2023-02-28T14:23:13;4.60;;;1.30;;
65328;SDS011;51941;52.210;5.158;2023-02-28T14:25:48;2.45;;;1.30;;
65328;SDS011;51941;52.210;5.158;2023-02-28T14:28:27;2.90;;;1.88;;
65328;SDS011;51941;52.210;5.158;2023-02-28T14:31:10;3.95;;;2.95;;
65328;SDS011;51941;52.210;5.158;2023-02-28T14:33:53;2.03;;;0.90;;
65328;SDS011;51941;52.210;5.158;2023-02-28T14:36:31;3.25;;;3.05;;
65328;SDS011;51941;52.210;5.158;2023-02-28T14:39:00;2.92;;;2.70;;
65328;SDS011;51941;52.210;5.158;2023-02-28T14:41:32;1.42;;;1.13;;
65328;SDS011;51941;52.210;5.158;2023-02-28T14:44:13;2.35;;;1.00;;
65328;SDS011;51941;52.210;5.158;2023-02-28T14:46:41;1.40;;;1.10;;
65328;SDS011;51941;52.210;5.158;2023-02-28T14:49:12;1.63;;;1.10;;
65328;SDS011;51941;52.210;5.158;2023-02-28T14:51:42;0.98;;;0.93;;
65328;SDS011;51941;52.210;5.158;2023-02-28T14:54:12;1.05;;;0.95;;
65328;SDS011;51941;52.210;5.158;2023-02-28T14:56:40;1.30;;;1.00;;
65328;SDS011;51941;52.210;5.158;2023-02-28T14:59:21;1.73;;;1.23;;
65328;SDS011;51941;52.210;5.158;2023-02-28T15:01:51;1.33;;;1.08;;
65328;SDS011;51941;52.210;5.158;2023-02-28T15:04:20;1.67;;;1.05;;
65328;SDS011;51941;52.210;5.158;2023-02-28T15:07:07;2.15;;;1.30;;
65328;SDS011;51941;52.210;5.158;2023-02-28T15:09:33;2.38;;;1.20;;
65328;SDS011;51941;52.210;5.158;2023-02-28T15:12:00;1.80;;;1.23;;
65328;SDS011;51941;52.210;5.158;2023-02-28T15:14:29;1.52;;;1.35;;
65328;SDS011;51941;52.210;5.158;2023-02-28T15:16:56;1.55;;;1.40;;
65328;SDS011;51941;52.210;5.158;2023-02-28T15:19:26;2.05;;;1.50;;
65328;SDS011;51941;52.210;5.158;2023-02-28T15:24:27;1.40;;;1.30;;
65328;SDS011;51941;52.210;5.158;2023-02-28T15:27:02;1.70;;;1.20;;
65328;SDS011;51941;52.210;5.158;2023-02-28T15:29:34;2.42;;;1.80;;
65328;SDS011;51941;52.210;5.158;2023-02-28T15:32:20;3.63;;;2.47;;
65328;SDS011;51941;52.210;5.158;2023-02-28T15:34:53;7.60;;;2.10;;
65328;SDS011;51941;52.210;5.158;2023-02-28T15:37:25;2.25;;;1.60;;
65328;SDS011;51941;52.210;5.158;2023-02-28T15:39:55;2.95;;;1.50;;
65328;SDS011;51941;52.210;5.158;2023-02-28T15:42:27;3.28;;;1.67;;
65328;SDS011;51941;52.210;5.158;2023-02-28T15:44:57;2.72;;;1.40;;
65328;SDS011;51941;52.210;5.158;2023-02-28T15:47:26;3.22;;;1.52;;
65328;SDS011;51941;52.210;5.158;2023-02-28T15:49:54;1.30;;;1.20;;
65328;SDS011;51941;52.210;5.158;2023-02-28T15:52:26;2.25;;;1.45;;
65328;SDS011;51941;52.210;5.158;2023-02-28T15:54:56;1.63;;;1.42;;
65328;SDS011;51941;52.210;5.158;2023-02-28T15:57:25;1.30;;;1.20;;
65328;SDS011;51941;52.210;5.158;2023-02-28T15:59:55;2.55;;;1.48;;
65328;SDS011;51941;52.210;5.158;2023-02-28T16:02:30;3.08;;;1.70;;
65328;SDS011;51941;52.210;5.158;2023-02-28T16:05:02;4.63;;;1.88;;
65328;SDS011;51941;52.210;5.158;2023-02-28T16:07:56;3.92;;;1.75;;
65328;SDS011;51941;52.210;5.158;2023-02-28T16:10:24;2.80;;;1.60;;
65328;SDS011;51941;52.210;5.158;2023-02-28T16:12:52;2.17;;;1.67;;
65328;SDS011;51941;52.210;5.158;2023-02-28T16:15:23;2.88;;;1.75;;
65328;SDS011;51941;52.210;5.158;2023-02-28T16:17:51;3.25;;;1.70;;
65328;SDS011;51941;52.210;5.158;2023-02-28T16:20:19;2.90;;;1.60;;